createdAt,value
2019-01-29T00:00:49.118Z,6.50
2019-01-29T00:03:20.128Z,8.70
2019-01-29T00:05:50.983Z,6.83
2019-01-29T00:08:22.367Z,4.47
2019-01-29T00:10:53.250Z,8.43
2019-01-29T00:13:24.170Z,9.63
2019-01-29T00:15:55.126Z,15.63
2019-01-29T00:18:26.042Z,5.80
2019-01-29T00:20:58.409Z,7.63
2019-01-29T00:23:29.281Z,6.40
2019-01-29T00:26:00.081Z,8.80
2019-01-29T00:28:30.899Z,12.17
2019-01-29T00:31:01.875Z,6.93
2019-01-29T00:33:32.793Z,7.30
2019-01-29T00:36:03.629Z,6.03
2019-01-29T00:38:34.562Z,8.97
2019-01-29T00:41:05.600Z,11.10
2019-01-29T00:43:36.583Z,13.87
2019-01-29T00:46:08.475Z,7.30
2019-01-29T00:48:39.385Z,12.77
2019-01-29T00:51:10.284Z,11.40
2019-01-29T00:53:42.670Z,10.63
2019-01-29T00:56:14.646Z,10.60
2019-01-29T00:58:45.454Z,8.93
2019-01-29T01:01:16.717Z,11.10
2019-01-29T01:03:47.754Z,9.93
2019-01-29T01:06:18.633Z,9.43
2019-01-29T01:08:49.409Z,8.37
2019-01-29T01:11:20.177Z,8.97
2019-01-29T01:13:51.121Z,7.63
2019-01-29T01:16:21.947Z,8.37
2019-01-29T01:18:52.898Z,11.63
2019-01-29T01:21:23.793Z,9.27
2019-01-29T01:23:54.770Z,6.50
2019-01-29T01:26:25.653Z,18.93
2019-01-29T01:28:56.536Z,10.73
2019-01-29T01:31:27.445Z,5.80
2019-01-29T01:33:58.348Z,12.13
2019-01-29T01:36:29.268Z,14.30
2019-01-29T01:39:00.405Z,9.47
2019-01-29T01:41:31.256Z,8.20
2019-01-29T01:44:02.145Z,8.43
2019-01-29T01:46:33.015Z,12.33
2019-01-29T01:49:04.365Z,10.57
2019-01-29T01:51:35.262Z,9.30
2019-01-29T01:54:06.437Z,7.80
2019-01-29T01:56:37.332Z,8.43
2019-01-29T01:59:09.976Z,11.73
2019-01-29T02:01:41.139Z,8.93
2019-01-29T02:04:11.967Z,12.13
2019-01-29T02:06:42.776Z,8.37
2019-01-29T02:09:13.600Z,10.57
2019-01-29T02:11:44.414Z,9.57
2019-01-29T02:14:15.275Z,6.93
2019-01-29T02:16:46.154Z,8.63
2019-01-29T02:19:17.032Z,8.30
2019-01-29T02:21:49.158Z,7.23
2019-01-29T02:24:20.121Z,13.43
2019-01-29T02:26:51.004Z,10.63
2019-01-29T02:29:21.952Z,8.00
2019-01-29T02:31:52.753Z,6.40
2019-01-29T02:34:23.648Z,21.23
2019-01-29T02:36:54.522Z,10.20
2019-01-29T02:39:25.383Z,8.40
2019-01-29T02:41:56.291Z,17.30
2019-01-29T02:44:27.176Z,15.00
2019-01-29T02:46:58.071Z,14.53
2019-01-29T02:49:28.998Z,9.90
2019-01-29T02:51:59.823Z,10.73
2019-01-29T02:54:30.652Z,7.73
2019-01-29T02:57:01.946Z,14.28
2019-01-29T02:59:32.800Z,7.30
2019-01-29T03:02:05.563Z,13.17
2019-01-29T03:04:36.506Z,8.00
2019-01-29T03:07:07.417Z,19.43
2019-01-29T03:09:39.312Z,10.73
2019-01-29T03:12:10.318Z,10.37
2019-01-29T03:14:41.102Z,7.40
2019-01-29T03:17:12.126Z,7.77
2019-01-29T03:19:43.003Z,9.57
2019-01-29T03:22:13.849Z,6.77
2019-01-29T03:24:44.767Z,6.90
2019-01-29T03:27:15.651Z,7.63
2019-01-29T03:29:46.502Z,8.07
2019-01-29T03:32:17.369Z,11.63
2019-01-29T03:34:48.234Z,8.53
2019-01-29T03:37:19.113Z,11.53
2019-01-29T03:39:49.955Z,11.23
2019-01-29T03:42:20.835Z,11.40
2019-01-29T03:44:51.710Z,7.60
2019-01-29T03:47:22.602Z,10.00
2019-01-29T03:49:53.451Z,13.30
2019-01-29T03:52:24.267Z,15.20
2019-01-29T03:54:55.173Z,11.20
2019-01-29T03:57:26.081Z,14.40
2019-01-29T03:59:57.004Z,8.23
2019-01-29T04:02:28.579Z,10.73
2019-01-29T04:04:59.433Z,7.47
2019-01-29T04:07:30.400Z,16.57
2019-01-29T04:10:01.416Z,13.10
2019-01-29T04:12:32.293Z,10.83
2019-01-29T04:15:03.176Z,8.87
2019-01-29T04:17:33.972Z,16.63
2019-01-29T04:20:05.899Z,12.57
2019-01-29T04:22:38.262Z,12.23
2019-01-29T04:25:09.658Z,9.93
2019-01-29T04:27:40.605Z,8.93
2019-01-29T04:30:16.821Z,14.07
2019-01-29T04:32:47.705Z,21.10
2019-01-29T04:35:18.597Z,16.43
2019-01-29T04:37:49.473Z,19.23
2019-01-29T04:40:21.269Z,14.80
2019-01-29T04:42:54.630Z,16.63
2019-01-29T04:45:25.493Z,11.33
2019-01-29T04:47:57.946Z,14.90
2019-01-29T04:50:28.800Z,12.07
2019-01-29T04:52:59.665Z,13.23
2019-01-29T04:55:30.712Z,12.87
2019-01-29T04:58:01.669Z,16.87
2019-01-29T05:00:32.766Z,16.53
2019-01-29T05:03:06.200Z,17.93
2019-01-29T05:05:37.301Z,14.50
2019-01-29T05:08:08.182Z,17.97
2019-01-29T05:10:39.089Z,16.77
2019-01-29T05:13:09.963Z,30.07
2019-01-29T05:15:40.950Z,17.53
2019-01-29T05:18:13.516Z,16.00
2019-01-29T05:20:44.377Z,16.87
2019-01-29T05:23:15.159Z,23.30
2019-01-29T05:25:47.378Z,16.40
2019-01-29T05:28:18.417Z,15.97
2019-01-29T05:30:49.227Z,25.60
2019-01-29T05:33:20.108Z,20.57
2019-01-29T05:35:53.176Z,21.60
2019-01-29T05:38:24.117Z,20.33
2019-01-29T05:40:54.982Z,18.87
2019-01-29T05:43:25.975Z,24.20
2019-01-29T05:45:56.912Z,23.83
2019-01-29T05:48:29.379Z,22.50
2019-01-29T05:51:00.276Z,27.47
2019-01-29T05:53:31.179Z,29.13
2019-01-29T05:56:02.168Z,19.47
2019-01-29T05:58:33.057Z,17.10
2019-01-29T06:01:04.007Z,29.07
2019-01-29T06:03:35.329Z,19.10
2019-01-29T06:06:06.434Z,20.07
2019-01-29T06:08:37.481Z,19.73
2019-01-29T06:11:09.727Z,20.40
2019-01-29T06:13:40.720Z,23.20
2019-01-29T06:16:11.657Z,22.17
2019-01-29T06:18:42.527Z,23.93
2019-01-29T06:21:13.546Z,22.20
2019-01-29T06:23:44.574Z,20.70
2019-01-29T06:26:15.450Z,19.73
2019-01-29T06:28:48.209Z,24.40
2019-01-29T06:31:19.050Z,22.47
2019-01-29T06:33:49.977Z,20.20
2019-01-29T06:36:20.850Z,27.27
2019-01-29T06:38:51.731Z,25.67
2019-01-29T06:41:22.559Z,26.80
2019-01-29T06:43:53.545Z,23.53
2019-01-29T06:46:24.370Z,23.93
2019-01-29T06:48:55.180Z,33.50
2019-01-29T06:51:26.053Z,25.23
2019-01-29T06:53:56.953Z,21.60
2019-01-29T06:56:27.809Z,27.70
2019-01-29T06:58:58.957Z,24.30
2019-01-29T07:01:30.009Z,24.10
2019-01-29T07:04:02.628Z,24.43
2019-01-29T07:06:33.629Z,29.13
2019-01-29T07:09:08.312Z,24.37
2019-01-29T07:11:39.216Z,23.27
2019-01-29T07:14:10.096Z,21.93
2019-01-29T07:17:03.489Z,25.87
2019-01-29T07:19:36.798Z,24.00
2019-01-29T07:22:07.676Z,25.90
2019-01-29T07:24:42.895Z,28.70
2019-01-29T07:27:11.282Z,27.43
2019-01-29T07:29:43.001Z,24.63
2019-01-29T07:32:14.061Z,28.53
2019-01-29T07:34:44.947Z,25.00
2019-01-29T07:37:21.811Z,32.00
2019-01-29T07:39:48.404Z,23.23
2019-01-29T07:42:19.205Z,29.73
2019-01-29T07:44:50.203Z,25.70
2019-01-29T07:47:21.216Z,28.27
2019-01-29T07:49:52.130Z,26.83
2019-01-29T07:52:23.213Z,23.20
2019-01-29T07:54:54.217Z,26.73
2019-01-29T07:57:25.132Z,25.77
2019-01-29T07:59:56.109Z,26.93
2019-01-29T08:02:27.068Z,29.87
2019-01-29T08:04:58.534Z,26.70
2019-01-29T08:07:29.517Z,33.53
2019-01-29T08:10:00.317Z,28.67
2019-01-29T08:12:31.204Z,27.83
2019-01-29T08:15:02.087Z,25.50
2019-01-29T08:17:34.132Z,36.03
2019-01-29T08:20:05.721Z,35.17
2019-01-29T08:22:36.600Z,32.87
2019-01-29T08:25:07.817Z,50.33
2019-01-29T08:27:38.693Z,30.40
2019-01-29T08:30:09.927Z,34.43
2019-01-29T08:32:40.829Z,40.97
2019-01-29T08:35:14.620Z,41.77
2019-01-29T08:37:45.596Z,33.03
2019-01-29T08:40:16.971Z,32.43
2019-01-29T08:42:47.926Z,36.87
2019-01-29T08:45:19.013Z,40.60
2019-01-29T08:47:51.145Z,41.10
2019-01-29T08:50:22.812Z,44.63
2019-01-29T08:52:53.742Z,42.33
2019-01-29T08:55:24.985Z,40.97
2019-01-29T08:57:55.786Z,38.97
2019-01-29T09:00:26.777Z,38.33
2019-01-29T09:02:57.665Z,40.10
2019-01-29T09:05:29.316Z,42.33
2019-01-29T09:08:00.327Z,43.93
2019-01-29T09:10:31.289Z,34.53
2019-01-29T09:13:02.267Z,41.10
2019-01-29T09:15:33.212Z,40.73
2019-01-29T09:18:04.397Z,54.20
2019-01-29T09:20:35.341Z,49.67
2019-01-29T09:23:06.260Z,45.83
2019-01-29T09:25:37.191Z,37.47
2019-01-29T09:28:08.082Z,45.63
2019-01-29T09:30:40.118Z,42.03
2019-01-29T09:33:11.003Z,42.27
2019-01-29T09:35:54.274Z,45.37
2019-01-29T09:38:26.298Z,38.00
2019-01-29T09:40:57.219Z,41.43
2019-01-29T09:43:28.271Z,48.03
2019-01-29T09:45:59.404Z,50.23
2019-01-29T09:48:30.308Z,38.90
2019-01-29T09:51:02.843Z,44.33
2019-01-29T09:53:35.704Z,48.50
2019-01-29T09:56:06.838Z,38.03
2019-01-29T09:58:37.832Z,35.93
2019-01-29T10:01:08.960Z,45.70
2019-01-29T10:03:39.836Z,36.20
2019-01-29T10:06:11.504Z,35.53
2019-01-29T10:08:42.875Z,46.13
2019-01-29T10:11:13.731Z,42.43
2019-01-29T10:13:44.617Z,35.90
2019-01-29T10:16:15.433Z,41.23
2019-01-29T10:18:46.206Z,36.47
2019-01-29T10:21:18.936Z,36.00
2019-01-29T10:23:49.817Z,35.97
2019-01-29T10:26:20.632Z,33.00
2019-01-29T10:28:51.538Z,34.83
2019-01-29T10:31:24.304Z,43.87
2019-01-29T10:33:55.150Z,34.80
2019-01-29T10:36:26.054Z,37.73
2019-01-29T10:38:56.940Z,39.40
2019-01-29T10:41:27.998Z,35.33
2019-01-29T10:43:59.089Z,44.73
2019-01-29T10:46:29.970Z,37.77
2019-01-29T10:49:00.821Z,36.87
2019-01-29T10:51:31.632Z,44.27
2019-01-29T10:54:02.918Z,36.33
2019-01-29T10:56:33.796Z,34.20
2019-01-29T10:59:04.976Z,36.83
2019-01-29T11:01:35.992Z,33.93
2019-01-29T11:04:07.376Z,29.60
2019-01-29T11:06:40.588Z,42.70
2019-01-29T11:09:13.776Z,38.90
2019-01-29T11:11:44.713Z,31.23
2019-01-29T11:14:15.620Z,33.27
2019-01-29T11:16:46.565Z,30.53
2019-01-29T11:19:19.246Z,33.13
2019-01-29T11:21:50.105Z,28.90
2019-01-29T11:24:20.970Z,24.47
2019-01-29T11:26:51.841Z,26.20
2019-01-29T11:29:22.953Z,34.50
2019-01-29T11:31:55.688Z,19.63
2019-01-29T11:34:26.721Z,27.87
2019-01-29T11:36:59.487Z,26.60
2019-01-29T11:39:30.426Z,23.67
2019-01-29T11:42:02.404Z,27.85
2019-01-29T11:44:33.355Z,19.37
2019-01-29T11:47:06.469Z,26.07
2019-01-29T11:49:38.798Z,19.90
2019-01-29T11:52:11.191Z,23.87
2019-01-29T11:54:42.271Z,19.20
2019-01-29T11:57:13.201Z,22.30
2019-01-29T11:59:44.145Z,21.97
2019-01-29T12:02:15.126Z,25.80
2019-01-29T12:04:46.037Z,20.88
2019-01-29T12:07:19.514Z,20.72
2019-01-29T12:09:50.601Z,17.50
2019-01-29T12:12:21.469Z,18.23
2019-01-29T12:14:52.306Z,21.35
2019-01-29T12:17:23.173Z,17.12
2019-01-29T12:19:54.253Z,20.48
2019-01-29T12:22:25.178Z,18.30
2019-01-29T12:24:56.089Z,18.90
2019-01-29T12:27:27.080Z,18.77
2019-01-29T12:29:58.059Z,16.17
2019-01-29T12:32:28.926Z,15.37
2019-01-29T12:34:59.827Z,14.00
2019-01-29T12:37:30.809Z,14.40
2019-01-29T12:40:02.988Z,11.65
2019-01-29T12:42:33.906Z,13.43
2019-01-29T12:45:06.120Z,15.03
2019-01-29T12:47:37.241Z,14.40
2019-01-29T12:50:11.105Z,11.40
2019-01-29T12:53:00.946Z,11.93
2019-01-29T12:55:32.067Z,15.50
2019-01-29T12:58:03.074Z,13.33
2019-01-29T13:00:37.611Z,13.65
2019-01-29T13:03:08.778Z,15.60
2019-01-29T13:05:39.764Z,10.38
2019-01-29T13:08:11.716Z,10.80
2019-01-29T13:10:43.033Z,13.05
2019-01-29T13:13:14.047Z,9.50
2019-01-29T13:15:45.041Z,11.18
2019-01-29T13:18:16.153Z,8.40
2019-01-29T13:20:47.101Z,9.95
2019-01-29T13:23:18.057Z,11.05
2019-01-29T13:25:49.227Z,10.28
2019-01-29T13:28:20.166Z,10.10
2019-01-29T13:30:51.046Z,9.03
2019-01-29T13:33:21.924Z,10.13
2019-01-29T13:35:52.861Z,8.55
2019-01-29T13:38:23.672Z,8.07
2019-01-29T13:40:54.606Z,9.45
2019-01-29T13:43:25.574Z,10.20
2019-01-29T13:45:56.479Z,8.58
2019-01-29T13:48:27.384Z,11.38
2019-01-29T13:51:00.292Z,12.55
2019-01-29T13:53:31.236Z,9.33
2019-01-29T13:56:02.063Z,9.98
2019-01-29T13:58:33.979Z,9.85
2019-01-29T14:01:05.482Z,7.12
2019-01-29T14:03:36.402Z,9.00
2019-01-29T14:06:08.496Z,7.35
2019-01-29T14:08:40.064Z,9.50
2019-01-29T14:11:11.092Z,5.75
2019-01-29T14:13:42.027Z,7.92
2019-01-29T14:16:14.426Z,4.27
2019-01-29T14:18:45.385Z,7.87
2019-01-29T14:21:16.425Z,7.47
2019-01-29T14:23:47.343Z,7.40
2019-01-29T14:26:18.285Z,6.83
2019-01-29T14:28:50.265Z,8.33
2019-01-29T14:31:21.209Z,5.50
2019-01-29T14:33:52.082Z,7.53
2019-01-29T14:36:23.306Z,3.70
2019-01-29T14:39:26.253Z,8.90
2019-01-29T14:41:57.234Z,3.97
2019-01-29T14:44:40.513Z,6.87
2019-01-29T14:47:11.554Z,3.77
2019-01-29T14:49:42.630Z,5.80
2019-01-29T14:52:13.604Z,5.10
2019-01-29T14:54:44.826Z,7.97
2019-01-29T14:57:15.898Z,4.23
2019-01-29T14:59:46.879Z,3.77
2019-01-29T15:02:18.037Z,4.87
2019-01-29T15:04:49.268Z,3.97
2019-01-29T15:07:20.303Z,6.20
2019-01-29T15:09:53.010Z,3.87
2019-01-29T15:12:24.013Z,5.50
2019-01-29T15:14:54.941Z,6.13
2019-01-29T15:17:30.677Z,3.87
2019-01-29T15:20:01.766Z,7.80
2019-01-29T15:22:34.283Z,6.67
2019-01-29T15:25:07.553Z,7.00
2019-01-29T15:27:38.463Z,5.40
2019-01-29T15:30:17.688Z,4.90
2019-01-29T15:32:48.748Z,7.87
2019-01-29T15:35:19.729Z,5.23
2019-01-29T15:37:50.849Z,5.70
2019-01-29T15:40:21.989Z,6.83
2019-01-29T15:42:52.888Z,5.60
2019-01-29T15:45:24.320Z,5.00
2019-01-29T15:47:55.226Z,4.67
2019-01-29T15:50:26.262Z,3.60
2019-01-29T15:52:57.659Z,4.17
2019-01-29T15:55:28.753Z,4.60
2019-01-29T15:57:59.747Z,5.70
2019-01-29T16:00:32.616Z,4.07
2019-01-29T16:03:03.661Z,4.13
2019-01-29T16:05:34.770Z,3.87
2019-01-29T16:08:06.845Z,4.53
2019-01-29T16:10:40.057Z,2.90
2019-01-29T16:13:11.343Z,3.97
2019-01-29T16:15:44.856Z,4.80
2019-01-29T16:18:18.586Z,3.33
2019-01-29T16:20:52.250Z,5.00
2019-01-29T16:23:23.274Z,3.10
2019-01-29T16:25:54.292Z,3.47
2019-01-29T16:28:27.331Z,1.83
2019-01-29T16:31:05.339Z,7.10
2019-01-29T16:33:36.208Z,5.23
2019-01-29T16:36:07.105Z,5.63
2019-01-29T16:38:38.009Z,5.53
2019-01-29T16:41:08.944Z,5.20
2019-01-29T16:43:55.846Z,4.70
2019-01-29T16:46:35.086Z,7.53
2019-01-29T16:49:07.684Z,4.00
2019-01-29T16:51:42.393Z,4.93
2019-01-29T16:54:13.273Z,4.60
2019-01-29T16:56:44.250Z,7.73
2019-01-29T16:59:15.182Z,4.80
2019-01-29T17:01:46.194Z,4.90
2019-01-29T17:04:17.108Z,8.10
2019-01-29T17:06:47.980Z,8.73
2019-01-29T17:09:19.037Z,5.90
2019-01-29T17:11:51.064Z,5.13
2019-01-29T17:14:22.185Z,4.50
2019-01-29T17:16:53.343Z,6.73
2019-01-29T17:19:26.229Z,5.20
2019-01-29T17:21:58.321Z,5.23
2019-01-29T17:24:29.201Z,3.87
2019-01-29T17:27:00.176Z,9.03
2019-01-29T17:29:31.248Z,3.40
2019-01-29T17:32:02.319Z,5.12
2019-01-29T17:34:33.353Z,8.20
2019-01-29T17:37:04.340Z,5.50
2019-01-29T17:39:36.765Z,4.47
2019-01-29T17:42:07.734Z,7.27
2019-01-29T17:44:38.698Z,6.60
2019-01-29T17:47:09.760Z,8.37
2019-01-29T17:49:40.934Z,9.30
2019-01-29T17:52:11.968Z,4.87
2019-01-29T17:54:43.022Z,6.83
2019-01-29T17:57:14.161Z,4.33
2019-01-29T17:59:45.165Z,3.47
2019-01-29T18:02:16.121Z,6.53
2019-01-29T18:04:47.299Z,5.37
2019-01-29T18:07:18.358Z,6.73
2019-01-29T18:09:50.483Z,6.37
2019-01-29T18:12:23.099Z,4.37
2019-01-29T18:14:54.027Z,5.70
2019-01-29T18:17:25.232Z,5.17
2019-01-29T18:19:57.932Z,3.27
2019-01-29T18:22:28.966Z,6.47
2019-01-29T18:25:00.016Z,5.60
2019-01-29T18:27:31.127Z,9.23
2019-01-29T18:30:02.218Z,7.07
2019-01-29T18:32:33.295Z,7.90
2019-01-29T18:35:05.032Z,7.55
2019-01-29T18:37:35.960Z,8.20
2019-01-29T18:40:08.293Z,8.07
2019-01-29T18:42:39.341Z,6.57
2019-01-29T18:45:11.241Z,6.53
2019-01-29T18:47:42.354Z,6.78
2019-01-29T18:50:15.229Z,7.37
2019-01-29T18:52:46.225Z,7.95
2019-01-29T18:55:19.745Z,8.23
2019-01-29T18:57:50.861Z,9.57
2019-01-29T19:00:24.349Z,9.20
2019-01-29T19:02:55.340Z,6.72
2019-01-29T19:05:26.518Z,8.73
2019-01-29T19:07:57.681Z,7.87
2019-01-29T19:10:28.867Z,7.78
2019-01-29T19:13:00.598Z,11.93
2019-01-29T19:15:31.748Z,6.80
2019-01-29T19:18:02.857Z,7.50
2019-01-29T19:20:34.925Z,8.28
2019-01-29T19:23:08.138Z,7.53
2019-01-29T19:25:39.224Z,9.58
2019-01-29T19:28:21.423Z,8.00
2019-01-29T19:30:44.901Z,9.30
2019-01-29T19:33:16.346Z,9.63
2019-01-29T19:35:47.377Z,9.95
2019-01-29T19:38:18.379Z,12.20
2019-01-29T19:40:50.904Z,9.98
2019-01-29T19:43:22.024Z,9.03
2019-01-29T19:45:53.121Z,9.55
2019-01-29T19:48:24.419Z,9.50
2019-01-29T19:50:55.589Z,10.05
2019-01-29T19:53:26.565Z,11.63
2019-01-29T19:55:59.697Z,10.40
2019-01-29T19:58:33.453Z,11.50
2019-01-29T20:01:05.424Z,8.43
2019-01-29T20:03:36.426Z,11.63
2019-01-29T20:06:07.677Z,8.30
2019-01-29T20:08:38.849Z,10.43
2019-01-29T20:11:09.950Z,9.97
2019-01-29T20:13:41.683Z,10.88
2019-01-29T20:16:12.768Z,8.90
2019-01-29T20:18:43.902Z,8.53
2019-01-29T20:21:14.891Z,8.65
2019-01-29T20:23:46.015Z,9.83
2019-01-29T20:26:17.187Z,7.80
2019-01-29T20:28:49.545Z,10.35
2019-01-29T20:31:22.302Z,10.18
2019-01-29T20:33:54.285Z,9.33
2019-01-29T20:36:25.442Z,12.15
2019-01-29T20:38:56.616Z,11.12
2019-01-29T20:41:27.700Z,11.33
2019-01-29T20:43:59.975Z,9.85
2019-01-29T20:46:30.915Z,11.10
2019-01-29T20:49:01.900Z,12.68
2019-01-29T20:51:34.150Z,12.33
2019-01-29T20:54:05.536Z,11.00
2019-01-29T20:56:36.565Z,10.90
2019-01-29T20:59:07.585Z,11.12
2019-01-29T21:01:38.761Z,11.95
2019-01-29T21:04:09.955Z,11.10
2019-01-29T21:06:41.113Z,8.50
2019-01-29T21:09:12.427Z,10.58
2019-01-29T21:11:43.393Z,11.00
2019-01-29T21:14:15.618Z,10.82
2019-01-29T21:16:46.739Z,8.18
2019-01-29T21:19:17.980Z,11.33
2019-01-29T21:21:49.102Z,12.23
2019-01-29T21:24:22.016Z,10.20
2019-01-29T21:26:53.117Z,9.23
2019-01-29T21:29:24.125Z,12.40
2019-01-29T21:31:55.272Z,9.33
2019-01-29T21:34:28.189Z,12.13
2019-01-29T21:36:59.450Z,12.67
2019-01-29T21:39:30.458Z,11.25
2019-01-29T21:42:01.415Z,11.95
2019-01-29T21:44:32.346Z,14.20
2019-01-29T21:47:03.376Z,12.50
2019-01-29T21:49:34.336Z,11.08
2019-01-29T21:52:05.787Z,14.53
2019-01-29T21:54:36.884Z,11.78
2019-01-29T21:57:08.036Z,12.07
2019-01-29T21:59:39.002Z,11.30
2019-01-29T22:02:10.072Z,11.78
2019-01-29T22:04:41.122Z,11.90
2019-01-29T22:07:12.237Z,11.83
2019-01-29T22:09:43.278Z,8.47
2019-01-29T22:12:14.318Z,13.03
2019-01-29T22:14:46.505Z,12.73
2019-01-29T22:17:17.593Z,13.08
2019-01-29T22:19:48.652Z,12.70
2019-01-29T22:22:19.569Z,13.40
2019-01-29T22:24:50.471Z,14.03
2019-01-29T22:27:23.088Z,12.10
2019-01-29T22:29:54.078Z,10.25
2019-01-29T22:32:25.074Z,13.87
2019-01-29T22:34:55.974Z,11.45
2019-01-29T22:37:27.036Z,11.63
2019-01-29T22:39:57.921Z,11.15
2019-01-29T22:42:29.137Z,10.07
2019-01-29T22:45:00.015Z,11.60
2019-01-29T22:47:31.010Z,10.03
2019-01-29T22:50:01.922Z,11.25
2019-01-29T22:52:32.798Z,13.90
2019-01-29T22:55:04.291Z,17.25
2019-01-29T22:57:35.221Z,9.83
2019-01-29T23:00:18.383Z,9.25
2019-01-29T23:02:51.071Z,11.03
2019-01-29T23:05:23.786Z,10.20
2019-01-29T23:07:54.717Z,10.08
2019-01-29T23:10:25.771Z,10.32
2019-01-29T23:12:57.726Z,8.53
2019-01-29T23:15:29.703Z,10.70
2019-01-29T23:18:00.599Z,7.75
2019-01-29T23:20:31.533Z,10.28
2019-01-29T23:23:02.332Z,8.95
2019-01-29T23:25:33.203Z,7.80
2019-01-29T23:28:05.329Z,7.55
2019-01-29T23:30:37.234Z,9.40
2019-01-29T23:33:08.130Z,7.80
2019-01-29T23:35:39.996Z,9.43
2019-01-29T23:38:12.012Z,9.73
2019-01-29T23:40:43.011Z,7.28
2019-01-29T23:43:13.929Z,8.00
2019-01-29T23:45:44.854Z,9.53
2019-01-29T23:48:16.393Z,9.70
2019-01-29T23:50:47.255Z,6.35
2019-01-29T23:53:18.133Z,10.37
2019-01-29T23:55:48.996Z,10.30
2019-01-29T23:58:19.872Z,11.10
